Elk Grove Village, IL (60007)

2:12 AM CST on February 06, 2016 (GMT -0600)
Busse Woods | | Change Station
CLOSE
Current Station
Personal Weather Station
Location: Elk Grove Village, IL
Elevation: 720 ft
Nearby Weather Stations

Elev 720 ft 42.01 °N, 88.01 °W | Updated 19 seconds ago

Overcast
Overcast
27.0 °F
Feels Like 27 °F
N
0.0
Wind Variable Wind from NNE
Gusts 2.0 mph

Today
High -- | Low -- °F
--% Chance of Precip.
Yesterday
High -- | Low -- °F
Precip. -- in
Pressure 30.30 in
Visibility 9.0 miles
Clouds Overcast 8000 ft
Windchill 27 °F
Dew Point 22 °F
Humidity 81%
Rainfall 0.00 in
Snow Depth Not available.
6:59 AM 5:12 PM
Waning Crescent, 7% visible
METAR KORD 060751Z 22006KT 9SM OVC080 M03/M06 A3028 RMK AO2 SLP261 T10281056
Pressure 30.30 in
Visibility 9.0 miles
Clouds Overcast 8000 ft
Windchill 27 °F
Dew Point 22 °F
Humidity 81%
Rainfall 0.00 in
Snow Depth Not available.
6:59 AM 5:12 PM
Waning Crescent, 7% visible
METAR KORD 060751Z 22006KT 9SM OVC080 M03/M06 A3028 RMK AO2 SLP261 T10281056

10-Day Weather Forecast

Almanac

Astronomy

Feb. 06, 2016 Rise Set
Actual Time
Civil Twilight
Nautical Twilight
Astronomical Twilight
Moon
Length of Visible Light
Length of Day
Tomorrow will be .
, % of the Moon is Illuminated

Today's Extremes

State Highs State Lows

Community

WunderPhotos

Upload Photos

1,890,933 photos uploaded!

WunderBlog® & News

Nearby

Air Quality

  Air Quality AQ Index Pollutant
Not available.

Snow Depth

Station Depth Elevation

Earthquake Activity

City Distance Mag. Time & Date
Minimum magnitude displayed is 2.5.

Coastal Water Temperatures

Place Temperature

Stations

Nearby Weather Stations

Station Location Temp. Windchill Dew Point Humidity Wind Precip. Elev Updated Type
                   

Watches & Warnings

There are currently no watches in effect.